Tipton Airport
KFME : now visible

Airfield :











YOU CAN JOIN US ON...

 
LOGIN :

Register | Disclaimer

   EN    FR    IT 

 









Legend :    VFR   Marginal VFR   IFR   Intensive IFR   Very Intensive IFR
Visi :
Ceiling :
>= 8 km
>= 3000ft
5 to 8 km
1000 to 3000 ft
1500m to 5 km
500 to 1000 ft
800 to 1500m
200 to 500 ft
< 800m
< 200 ft
Symbols :   Thunderstorms  Fog  Heavy snow  Heavy precipitations  Wind > 20 kt






- Airport Elevation : 150 ft


KFME - Tipton

CURRENT METAR :
  • 280839Z AUTO 22003KT 4SM OVC070 07/07 A2962 RMK AO1

EXPIRED METARs :
  • 280819Z AUTO 00000KT 4SM OVC070 07/07 A2962 RMK AO1
  • 280759Z AUTO 00000KT 3SM OVC070 07/07 A2961 RMK AO1
  • 280739Z AUTO 00000KT 1 1/2SM SCT001 OVC070 07/07 A2960 RMK AO1
  • 280719Z AUTO 00000KT 3/4SM OVC001 08/07 A2960 RMK AO1
  • 280659Z AUTO 00000KT 3SM BKN003 OVC070 08/08 A2959 RMK AO1
  • 280638Z AUTO 17003KT 1SM BKN003 OVC070 08/08 A2958 RMK AO1
  • 280558Z AUTO 00000KT 1 1/4SM OVC001 08/07 A2957 RMK AO1

TAF N/A
KZDC FIR / North America



MET'MAP, your aeronautical weather chart ! - Copyright ORBIFLY December 2007 - Disclaimer

ORBIFLY MET'MAP TEAM :

Programming & Development : Alexandra Zaïnal
Original concept : Baudouin d'Aumeries
Technical & hardware support : Manuel Goepfert
Assistance : Marc-Olivier Méhu




SOURCES & CREDITS :

   NOAA       Earth
Advisory